Time;durP1;ratioP1;P1;durP2;ratioP2;P2;SDS_P1;SDS_P2;PMS_P1;PMS_P2;Temp;Humidity;BMP_temperature;BMP_pressure;BME280_temperature;BME280_humidity;BME280_pressure;Samples;Min_cycle;Max_cycle;Signal;HPM_P1;HPM_P2
2023/07/22 00:00:39;;;;;;;43.53;26.23;;;12.00;99.90;;;;;;5038735;28;20037;-71
2023/07/22 00:03:05;;;;;;;43.47;27.05;;;12.00;99.90;;;;;;5037372;28;20078;-71
2023/07/22 00:05:33;;;;;;;42.47;26.27;;;12.00;99.90;;;;;;5027737;28;20048;-71
2023/07/22 00:08:00;;;;;;;39.50;26.35;;;12.00;99.90;;;;;;5036035;28;20068;-71
2023/07/22 00:10:26;;;;;;;39.03;24.00;;;11.90;99.90;;;;;;5032594;28;20123;-72
2023/07/22 00:12:53;;;;;;;40.92;23.05;;;11.90;99.90;;;;;;5037612;28;20099;-72
2023/07/22 00:15:22;;;;;;;39.50;24.58;;;11.90;99.90;;;;;;5030594;28;20192;-72
2023/07/22 00:17:48;;;;;;;37.42;24.05;;;12.00;99.90;;;;;;5042818;28;20122;-72
2023/07/22 00:20:16;;;;;;;41.35;25.20;;;12.00;99.90;;;;;;5033722;28;20813;-72
2023/07/22 00:22:43;;;;;;;44.78;25.48;;;12.00;99.90;;;;;;5035660;28;20045;-71
2023/07/22 00:25:11;;;;;;;41.88;25.27;;;11.90;99.90;;;;;;5043102;28;20042;-72
2023/07/22 00:27:39;;;;;;;40.05;24.63;;;11.90;99.90;;;;;;5033475;28;21919;-72
2023/07/22 00:30:07;;;;;;;42.33;24.52;;;12.00;99.90;;;;;;5036038;28;20072;-72
2023/07/22 00:32:36;;;;;;;43.45;25.60;;;11.90;99.90;;;;;;5021010;28;20041;-72
2023/07/22 00:35:07;;;;;;;45.10;27.15;;;11.90;99.90;;;;;;5040390;28;20084;-72
2023/07/22 00:37:33;;;;;;;41.88;25.48;;;11.90;99.90;;;;;;5030102;28;20747;-72
2023/07/22 00:40:02;;;;;;;43.58;26.77;;;11.90;99.90;;;;;;5043530;28;20125;-72
2023/07/22 00:42:29;;;;;;;41.20;25.38;;;11.90;99.90;;;;;;5039692;28;20048;-72
2023/07/22 00:44:56;;;;;;;42.15;26.80;;;11.90;99.90;;;;;;5044686;28;20134;-72
2023/07/22 00:47:23;;;;;;;43.50;26.13;;;11.80;99.90;;;;;;5039963;28;20037;-72
2023/07/22 00:49:51;;;;;;;37.08;26.10;;;11.80;99.90;;;;;;5044969;28;20055;-73
2023/07/22 00:52:18;;;;;;;39.55;26.08;;;11.70;99.90;;;;;;5039364;28;20529;-71
2023/07/22 00:54:45;;;;;;;44.45;26.48;;;11.70;99.90;;;;;;5060116;28;20674;-72
2023/07/22 00:57:12;;;;;;;42.60;26.15;;;11.70;99.90;;;;;;5037935;28;20040;-71
2023/07/22 00:59:40;;;;;;;46.92;27.20;;;11.70;99.90;;;;;;5035983;28;20049;-72
2023/07/22 01:02:07;;;;;;;40.53;26.10;;;11.70;99.90;;;;;;5043965;28;20102;-72
2023/07/22 01:04:35;;;;;;;41.80;25.23;;;11.70;99.90;;;;;;5030557;28;20056;-71
2023/07/22 01:07:06;;;;;;;42.92;25.23;;;11.70;99.90;;;;;;5046110;28;20044;-72
2023/07/22 01:09:41;;;;;;;43.25;25.42;;;11.60;99.90;;;;;;5034433;28;20044;-71
2023/07/22 01:12:08;;;;;;;40.05;25.50;;;11.60;99.90;;;;;;5037433;28;20041;-71
2023/07/22 01:14:41;;;;;;;47.13;25.25;;;11.60;99.90;;;;;;5032716;28;20048;-71
2023/07/22 01:17:10;;;;;;;42.42;26.65;;;11.60;99.90;;;;;;5043099;28;20036;-72
2023/07/22 01:19:36;;;;;;;45.22;27.27;;;11.60;99.90;;;;;;5047570;28;20053;-71
2023/07/22 01:22:08;;;;;;;44.05;26.63;;;11.50;99.90;;;;;;5042143;28;20037;-73
2023/07/22 01:24:35;;;;;;;42.97;27.05;;;11.50;99.90;;;;;;5042038;28;20206;-72
2023/07/22 01:27:03;;;;;;;41.70;25.13;;;11.40;99.90;;;;;;5045191;28;20041;-73
2023/07/22 01:29:30;;;;;;;43.63;26.95;;;11.40;99.90;;;;;;5061849;28;20046;-72
2023/07/22 01:31:57;;;;;;;43.58;27.40;;;11.40;99.90;;;;;;5050699;28;20041;-72
2023/07/22 01:34:26;;;;;;;42.33;27.23;;;11.30;99.90;;;;;;5036948;28;20537;-72
2023/07/22 01:36:53;;;;;;;42.67;26.88;;;11.40;99.90;;;;;;5043248;28;20421;-73
2023/07/22 01:39:21;;;;;;;48.47;29.00;;;11.30;99.90;;;;;;5036221;28;20072;-71
2023/07/22 01:41:48;;;;;;;44.60;27.52;;;11.20;99.90;;;;;;5038384;28;20554;-72
2023/07/22 01:44:15;;;;;;;39.38;26.45;;;11.20;99.90;;;;;;5042282;28;20391;-72
2023/07/22 01:46:42;;;;;;;39.42;27.00;;;11.20;99.90;;;;;;5037979;28;20110;-72
2023/07/22 01:49:12;;;;;;;41.28;26.55;;;11.10;99.90;;;;;;5041671;28;20044;-72
2023/07/22 01:51:42;;;;;;;48.17;27.05;;;11.10;99.90;;;;;;5037323;28;20043;-73
2023/07/22 01:54:10;;;;;;;46.67;28.38;;;11.10;99.90;;;;;;5040207;28;20052;-73
2023/07/22 01:56:37;;;;;;;45.30;25.67;;;11.00;99.90;;;;;;5039708;28;20651;-72
2023/07/22 01:59:04;;;;;;;43.30;25.02;;;11.00;99.90;;;;;;5045142;28;20626;-72
2023/07/22 02:01:32;;;;;;;37.38;25.30;;;11.10;99.90;;;;;;5037038;28;20136;-72
2023/07/22 02:04:00;;;;;;;46.88;27.25;;;11.00;99.90;;;;;;5025292;28;20139;-72
2023/07/22 02:06:28;;;;;;;46.83;26.58;;;11.00;99.90;;;;;;5036940;28;20037;-71
2023/07/22 02:08:56;;;;;;;41.92;25.65;;;11.00;99.90;;;;;;5049931;28;20041;-72
2023/07/22 02:11:23;;;;;;;44.03;26.42;;;11.00;99.90;;;;;;5035849;28;20706;-72
2023/07/22 02:13:50;;;;;;;46.83;25.05;;;11.00;99.90;;;;;;5050575;28;20518;-72
2023/07/22 02:16:17;;;;;;;45.15;25.60;;;11.00;99.90;;;;;;5023463;28;20044;-72
2023/07/22 02:18:44;;;;;;;43.63;26.00;;;11.10;99.90;;;;;;5018364;28;20141;-71
2023/07/22 02:21:10;;;;;;;42.42;26.05;;;11.10;99.90;;;;;;5040501;28;20098;-74
2023/07/22 02:23:37;;;;;;;41.38;25.83;;;11.10;99.90;;;;;;5035350;28;20568;-73
2023/07/22 02:26:04;;;;;;;42.08;25.35;;;11.20;99.90;;;;;;5035008;28;20047;-71
2023/07/22 02:28:31;;;;;;;40.00;25.25;;;11.20;99.90;;;;;;5035995;28;20068;-73
2023/07/22 02:31:02;;;;;;;41.22;23.75;;;11.20;99.90;;;;;;5035567;28;20041;-73
2023/07/22 02:33:29;;;;;;;41.30;24.55;;;11.20;99.90;;;;;;5035437;28;20053;-73
2023/07/22 02:35:55;;;;;;;35.40;24.05;;;11.20;99.90;;;;;;5034150;28;20457;-71
2023/07/22 02:38:22;;;;;;;37.80;24.00;;;11.20;99.90;;;;;;5035090;28;20049;-71
2023/07/22 02:40:49;;;;;;;38.75;24.42;;;11.30;99.90;;;;;;5039165;28;20657;-74
2023/07/22 02:43:16;;;;;;;35.42;23.85;;;11.30;99.90;;;;;;5039267;28;20045;-71
2023/07/22 02:45:44;;;;;;;39.80;24.23;;;11.30;99.90;;;;;;5029801;28;20271;-74
2023/07/22 02:48:10;;;;;;;37.15;24.05;;;11.40;99.90;;;;;;5042493;28;20124;-73
2023/07/22 02:50:37;;;;;;;38.25;24.45;;;11.40;99.90;;;;;;5034401;28;20042;-73
2023/07/22 02:53:04;;;;;;;37.35;23.85;;;11.50;99.90;;;;;;5037744;28;20099;-73
2023/07/22 02:55:31;;;;;;;31.30;23.02;;;11.60;99.90;;;;;;5030319;28;20049;-73
2023/07/22 02:57:57;;;;;;;35.20;24.80;;;11.60;99.90;;;;;;5040328;28;20053;-71
2023/07/22 03:00:24;;;;;;;32.25;23.98;;;11.60;99.90;;;;;;5050604;28;20045;-71
2023/07/22 03:02:53;;;;;;;31.52;24.23;;;11.70;99.90;;;;;;5056105;28;20060;-71
2023/07/22 03:05:21;;;;;;;34.78;24.05;;;11.70;99.90;;;;;;5014985;28;20115;-74
2023/07/22 03:07:47;;;;;;;34.13;24.25;;;11.80;99.90;;;;;;5007460;28;20033;-71
2023/07/22 03:10:14;;;;;;;33.72;23.90;;;11.80;99.90;;;;;;5042317;28;20410;-72
2023/07/22 03:12:41;;;;;;;34.17;25.75;;;11.80;99.90;;;;;;5042857;28;20057;-72
2023/07/22 03:15:08;;;;;;;29.42;23.40;;;11.90;99.90;;;;;;5051729;28;20603;-73
2023/07/22 03:17:36;;;;;;;35.15;25.70;;;11.90;99.90;;;;;;5033182;28;20053;-73
2023/07/22 03:20:19;;;;;;;33.63;24.35;;;11.90;99.90;;;;;;5041559;28;20033;-72
2023/07/22 03:22:46;;;;;;;34.35;23.70;;;12.00;99.90;;;;;;5024947;28;20045;-73
2023/07/22 03:25:19;;;;;;;31.65;23.88;;;12.10;99.90;;;;;;5055272;28;20868;-73
2023/07/22 03:27:46;;;;;;;30.02;23.65;;;12.10;99.90;;;;;;5008341;28;20065;-73
2023/07/22 03:30:15;;;;;;;31.00;23.75;;;12.20;99.90;;;;;;5006295;28;20049;-73
2023/07/22 03:32:47;;;;;;;34.88;25.15;;;12.20;99.90;;;;;;5016849;28;20041;-73
2023/07/22 03:35:14;;;;;;;31.70;24.73;;;12.30;99.90;;;;;;5020890;28;20612;-73
2023/07/22 03:37:41;;;;;;;28.55;24.17;;;12.30;99.90;;;;;;5003820;28;20876;-73
2023/07/22 03:40:26;;;;;;;29.40;23.30;;;12.30;99.90;;;;;;5025949;28;20044;-73
2023/07/22 03:42:54;;;;;;;27.83;24.13;;;12.40;99.90;;;;;;5041071;28;20524;-73
2023/07/22 03:45:22;;;;;;;33.40;24.80;;;12.40;99.90;;;;;;5031082;28;20047;-73
2023/07/22 03:47:56;;;;;;;34.38;23.98;;;12.50;99.90;;;;;;5036070;28;20057;-73
2023/07/22 03:50:23;;;;;;;30.67;24.97;;;12.60;99.90;;;;;;5017114;28;20051;-73
2023/07/22 03:52:50;;;;;;;30.75;25.42;;;12.50;99.90;;;;;;5033466;28;20041;-73
2023/07/22 03:55:18;;;;;;;35.30;28.08;;;12.60;99.90;;;;;;5020350;28;20045;-72
2023/07/22 03:57:45;;;;;;;31.13;27.20;;;12.50;99.90;;;;;;5029145;28;20096;-72
2023/07/22 04:00:12;;;;;;;32.70;28.13;;;12.60;99.90;;;;;;5034186;28;20064;-72
2023/07/22 04:02:40;;;;;;;30.17;26.98;;;12.60;99.90;;;;;;5029196;28;20045;-73
2023/07/22 04:05:07;;;;;;;34.05;28.17;;;12.60;99.90;;;;;;5032372;28;20094;-72
2023/07/22 04:07:34;;;;;;;31.27;27.98;;;12.60;99.90;;;;;;5040843;28;20121;-72
2023/07/22 04:10:02;;;;;;;33.63;27.13;;;12.60;99.90;;;;;;5043451;28;20051;-73
2023/07/22 04:12:29;;;;;;;30.50;26.20;;;12.60;99.90;;;;;;5029599;28;20420;-71
2023/07/22 04:14:56;;;;;;;30.63;25.20;;;12.70;99.90;;;;;;5019926;28;20040;-72
2023/07/22 04:17:23;;;;;;;43.60;27.83;;;12.70;99.90;;;;;;5036246;28;20568;-73
2023/07/22 04:19:51;;;;;;;33.28;26.83;;;12.80;99.90;;;;;;5032872;28;20399;-73
2023/07/22 04:22:20;;;;;;;34.00;26.17;;;12.80;99.90;;;;;;5028609;28;20037;-72
2023/07/22 04:24:49;;;;;;;32.35;26.40;;;12.80;99.90;;;;;;5032129;28;20045;-73
2023/07/22 04:27:17;;;;;;;27.52;24.35;;;12.80;99.90;;;;;;5033932;28;20102;-72
2023/07/22 04:29:45;;;;;;;32.90;25.55;;;12.80;99.90;;;;;;5031421;28;20041;-72
2023/07/22 04:32:12;;;;;;;27.70;24.73;;;12.80;99.90;;;;;;5038217;28;20126;-73
2023/07/22 04:34:39;;;;;;;30.38;26.13;;;12.80;99.90;;;;;;5046395;28;20044;-73
2023/07/22 04:37:06;;;;;;;30.67;26.52;;;12.80;99.90;;;;;;5037826;28;20537;-72
2023/07/22 04:39:34;;;;;;;38.63;27.67;;;12.80;99.90;;;;;;5032853;28;20129;-72
2023/07/22 04:42:00;;;;;;;30.05;26.90;;;12.80;99.90;;;;;;5029062;28;20057;-73
2023/07/22 04:44:27;;;;;;;32.05;25.83;;;12.70;99.90;;;;;;5039538;28;20475;-73
2023/07/22 04:46:54;;;;;;;30.92;26.23;;;12.70;99.90;;;;;;5030449;28;20037;-72
2023/07/22 04:49:21;;;;;;;35.03;25.52;;;12.70;99.90;;;;;;5031725;28;20140;-72
2023/07/22 04:51:48;;;;;;;34.75;25.98;;;12.90;99.90;;;;;;5027705;28;20033;-72
2023/07/22 04:54:15;;;;;;;31.38;25.40;;;13.10;99.90;;;;;;5035732;28;20044;-71
2023/07/22 04:56:42;;;;;;;30.63;25.50;;;13.10;99.90;;;;;;5028444;28;20041;-71
2023/07/22 04:59:10;;;;;;;32.28;25.45;;;13.10;99.90;;;;;;5039958;28;20118;-71
2023/07/22 05:01:37;;;;;;;33.97;27.05;;;13.10;99.90;;;;;;5032006;28;20061;-73
2023/07/22 05:04:04;;;;;;;33.17;26.40;;;13.00;99.90;;;;;;5034837;28;20052;-72
2023/07/22 05:06:32;;;;;;;34.85;27.70;;;13.10;99.90;;;;;;5036330;28;20045;-73
2023/07/22 05:08:59;;;;;;;36.40;28.42;;;13.10;99.90;;;;;;5034696;28;20103;-74
2023/07/22 05:11:26;;;;;;;34.65;28.38;;;13.00;99.90;;;;;;5033510;28;20041;-74
2023/07/22 05:13:53;;;;;;;34.45;27.80;;;13.10;99.90;;;;;;5036025;28;20041;-72
2023/07/22 05:16:21;;;;;;;31.65;28.20;;;13.10;99.90;;;;;;5032862;28;20132;-72
2023/07/22 05:18:48;;;;;;;30.63;27.50;;;13.20;99.90;;;;;;5030513;28;20141;-72
2023/07/22 05:21:15;;;;;;;30.73;27.38;;;13.20;99.90;;;;;;5039893;28;20063;-72
2023/07/22 05:23:42;;;;;;;32.28;27.50;;;13.30;99.90;;;;;;5027479;28;20138;-72
2023/07/22 05:26:08;;;;;;;31.25;27.73;;;13.20;99.90;;;;;;5040775;28;20635;-72
2023/07/22 05:28:35;;;;;;;34.75;28.27;;;13.20;99.90;;;;;;5034091;28;20102;-72
2023/07/22 05:31:02;;;;;;;31.95;26.77;;;13.20;99.90;;;;;;5030049;28;20037;-72
2023/07/22 05:33:29;;;;;;;34.42;26.10;;;13.20;99.90;;;;;;5039660;28;20139;-72
2023/07/22 05:35:56;;;;;;;33.80;26.85;;;13.20;99.90;;;;;;5039113;28;20034;-72
2023/07/22 05:38:23;;;;;;;30.85;26.95;;;13.10;99.90;;;;;;5031858;28;20151;-72
2023/07/22 05:40:52;;;;;;;26.95;24.08;;;13.10;99.90;;;;;;5025260;28;20114;-71
2023/07/22 05:43:20;;;;;;;32.40;26.50;;;13.10;99.90;;;;;;5041335;28;20114;-70
2023/07/22 05:45:47;;;;;;;33.03;25.02;;;13.10;99.90;;;;;;5028725;28;20053;-72
2023/07/22 05:48:14;;;;;;;33.10;26.02;;;13.10;99.90;;;;;;5041727;28;20040;-71
2023/07/22 05:50:40;;;;;;;33.83;25.75;;;13.10;99.90;;;;;;5024095;28;20099;-70
2023/07/22 05:53:07;;;;;;;36.35;26.40;;;13.10;99.90;;;;;;5036481;28;20534;-72
2023/07/22 05:55:34;;;;;;;31.00;25.25;;;13.10;99.90;;;;;;5042143;28;20049;-69
2023/07/22 05:58:05;;;;;;;31.88;25.73;;;13.20;99.90;;;;;;5052629;28;20049;-72
2023/07/22 06:00:35;;;;;;;28.48;25.13;;;13.00;99.90;;;;;;5018503;28;20459;-70
2023/07/22 06:03:02;;;;;;;34.90;25.27;;;12.90;99.90;;;;;;5031799;28;20042;-71
2023/07/22 06:05:29;;;;;;;31.50;24.50;;;12.90;99.90;;;;;;5040348;28;20076;-70
2023/07/22 06:07:57;;;;;;;34.42;24.50;;;12.90;99.90;;;;;;5031412;28;21231;-71
2023/07/22 06:10:24;;;;;;;34.70;24.60;;;12.90;99.90;;;;;;5030820;28;20137;-70
2023/07/22 06:12:50;;;;;;;35.60;25.50;;;12.90;99.90;;;;;;5037426;28;20126;-70
2023/07/22 06:15:17;;;;;;;35.65;24.73;;;13.00;99.90;;;;;;5032432;28;20586;-71
2023/07/22 06:17:44;;;;;;;37.72;25.20;;;12.90;99.90;;;;;;5034680;28;20041;-71
2023/07/22 06:20:11;;;;;;;35.83;24.55;;;12.90;99.90;;;;;;5031376;28;20040;-71
2023/07/22 06:22:38;;;;;;;34.95;25.02;;;12.90;99.90;;;;;;5031206;28;20130;-71
2023/07/22 06:25:06;;;;;;;36.42;23.88;;;12.90;99.90;;;;;;5031794;28;20067;-71
2023/07/22 06:27:34;;;;;;;37.08;24.45;;;13.10;99.90;;;;;;5036695;28;20138;-71
2023/07/22 06:30:01;;;;;;;31.30;23.17;;;13.20;99.90;;;;;;5029011;28;20033;-70
2023/07/22 06:32:29;;;;;;;38.50;24.27;;;13.40;99.90;;;;;;5040001;28;20643;-70
2023/07/22 06:34:57;;;;;;;33.80;24.10;;;13.60;99.90;;;;;;5037928;28;20743;-69
2023/07/22 06:37:24;;;;;;;29.65;24.25;;;13.90;99.90;;;;;;5034018;28;20032;-70
2023/07/22 06:39:51;;;;;;;34.38;24.80;;;14.00;99.90;;;;;;5031429;28;20095;-70
2023/07/22 06:42:18;;;;;;;29.55;25.23;;;14.30;99.90;;;;;;5042080;28;20055;-70
2023/07/22 06:44:45;;;;;;;29.45;25.05;;;14.50;99.90;;;;;;5032184;28;20133;-70
2023/07/22 06:47:12;;;;;;;31.27;27.10;;;14.80;99.90;;;;;;5037143;28;20049;-70
2023/07/22 06:49:39;;;;;;;30.40;25.30;;;15.10;99.90;;;;;;5026707;28;20140;-69
2023/07/22 06:52:06;;;;;;;33.63;27.50;;;15.40;99.90;;;;;;5032490;28;20033;-71
2023/07/22 06:54:34;;;;;;;30.00;26.80;;;15.50;99.90;;;;;;5034327;28;20053;-70
2023/07/22 06:57:01;;;;;;;33.38;28.88;;;15.40;99.90;;;;;;5042820;28;20103;-72
2023/07/22 06:59:28;;;;;;;34.08;27.88;;;15.40;99.90;;;;;;5035381;28;20756;-71
2023/07/22 07:01:55;;;;;;;31.13;27.85;;;15.40;99.90;;;;;;5048420;28;20558;-70
2023/07/22 07:04:22;;;;;;;30.83;27.27;;;15.40;99.90;;;;;;5037249;28;20582;-73
2023/07/22 07:06:52;;;;;;;33.72;28.52;;;15.30;99.90;;;;;;5031686;28;20060;-70
2023/07/22 07:09:19;;;;;;;30.58;27.50;;;15.40;99.90;;;;;;5039694;28;20048;-73
2023/07/22 07:11:45;;;;;;;33.85;28.35;;;15.40;99.90;;;;;;5029988;28;20045;-71
2023/07/22 07:14:12;;;;;;;30.77;27.58;;;15.40;99.90;;;;;;5032740;28;20037;-71
2023/07/22 07:16:39;;;;;;;33.35;30.10;;;15.60;99.90;;;;;;5032125;28;20044;-71
2023/07/22 07:19:06;;;;;;;33.40;30.08;;;15.70;99.90;;;;;;5030395;28;20119;-71
2023/07/22 07:21:35;;;;;;;33.38;29.80;;;15.80;99.90;;;;;;5033739;28;20068;-72
2023/07/22 07:24:02;;;;;;;34.20;30.77;;;15.60;99.90;;;;;;5032960;28;20060;-71
2023/07/22 07:26:29;;;;;;;32.42;29.00;;;15.60;99.90;;;;;;5025420;28;20178;-71
2023/07/22 07:28:56;;;;;;;33.05;29.95;;;15.50;99.90;;;;;;5041278;28;20052;-71
2023/07/22 07:31:22;;;;;;;34.38;30.90;;;15.60;99.90;;;;;;5035088;28;20045;-71
2023/07/22 07:33:49;;;;;;;32.78;29.42;;;15.60;99.90;;;;;;5026275;28;20037;-72
2023/07/22 07:36:16;;;;;;;35.05;30.20;;;15.50;99.90;;;;;;5035077;28;20686;-71
2023/07/22 07:38:43;;;;;;;34.92;31.05;;;15.50;99.90;;;;;;5025829;28;20045;-72
2023/07/22 07:41:13;;;;;;;36.22;32.33;;;15.40;99.90;;;;;;5025465;28;20115;-73
2023/07/22 07:43:41;;;;;;;31.83;28.50;;;15.50;99.90;;;;;;5032219;28;20040;-72
2023/07/22 07:46:21;;;;;;;32.67;29.38;;;15.50;99.90;;;;;;5031944;28;20041;-73
2023/07/22 07:48:52;;;;;;;34.38;30.52;;;15.60;99.90;;;;;;5030530;28;20037;-72
2023/07/22 07:51:20;;;;;;;33.53;30.08;;;15.60;99.90;;;;;;5034734;28;20392;-73
2023/07/22 07:53:47;;;;;;;32.38;29.05;;;15.70;99.90;;;;;;5042072;28;20038;-72
2023/07/22 07:56:15;;;;;;;33.45;30.05;;;15.80;99.90;;;;;;5023219;28;20068;-73
2023/07/22 07:58:42;;;;;;;34.88;31.25;;;16.00;99.90;;;;;;5027151;28;20085;-72
2023/07/22 08:01:09;;;;;;;35.03;31.35;;;16.00;99.90;;;;;;5026910;28;20052;-73
2023/07/22 08:03:37;;;;;;;33.42;30.20;;;16.00;99.90;;;;;;5029302;28;20044;-72
2023/07/22 08:06:04;;;;;;;34.83;31.23;;;16.10;99.90;;;;;;5029448;28;20056;-73
2023/07/22 08:08:31;;;;;;;33.92;30.67;;;16.20;99.90;;;;;;5044715;28;20887;-73
2023/07/22 08:11:02;;;;;;;34.35;31.23;;;16.20;99.90;;;;;;5028471;28;20130;-73
2023/07/22 08:13:31;;;;;;;35.00;31.38;;;16.10;99.90;;;;;;5037577;28;20041;-72
2023/07/22 08:15:58;;;;;;;37.08;33.33;;;16.00;99.90;;;;;;5026821;28;20122;-72
2023/07/22 08:18:25;;;;;;;36.67;31.98;;;16.20;99.90;;;;;;5033347;28;20747;-72
2023/07/22 08:20:57;;;;;;;38.13;34.75;;;16.30;99.90;;;;;;5027540;28;20045;-72
2023/07/22 08:23:24;;;;;;;35.33;31.88;;;16.30;99.90;;;;;;5033028;28;20055;-73
2023/07/22 08:25:51;;;;;;;36.15;32.72;;;16.40;99.90;;;;;;5023288;28;20827;-73
2023/07/22 08:28:18;;;;;;;38.88;35.05;;;16.60;99.90;;;;;;5038766;28;20052;-73
2023/07/22 08:30:45;;;;;;;36.22;32.88;;;16.60;99.90;;;;;;5020515;28;20060;-73
2023/07/22 08:33:12;;;;;;;36.25;33.05;;;16.70;99.90;;;;;;5037665;28;20042;-74
2023/07/22 08:35:43;;;;;;;35.25;32.05;;;16.90;99.90;;;;;;5028024;28;20051;-73
2023/07/22 08:38:10;;;;;;;36.85;33.35;;;17.10;99.90;;;;;;5033160;28;20049;-71
2023/07/22 08:40:38;;;;;;;36.20;32.58;;;17.30;99.90;;;;;;5027677;28;20049;-73
2023/07/22 08:43:08;;;;;;;35.58;32.30;;;17.40;99.90;;;;;;5028343;28;21179;-73
2023/07/22 08:45:36;;;;;;;35.72;32.33;;;17.60;99.90;;;;;;5028623;28;20065;-73
2023/07/22 08:48:09;;;;;;;34.08;30.85;;;17.80;99.90;;;;;;5033276;28;20269;-72
2023/07/22 08:50:46;;;;;;;34.17;31.05;;;17.90;99.90;;;;;;5031433;28;20415;-74
2023/07/22 08:53:14;;;;;;;34.47;31.23;;;18.10;99.90;;;;;;5035074;28;20040;-72
2023/07/22 08:55:42;;;;;;;34.33;31.38;;;18.20;99.90;;;;;;5036649;28;20110;-71
2023/07/22 08:58:09;;;;;;;34.70;31.52;;;18.40;99.90;;;;;;5049816;28;20049;-72
2023/07/22 09:00:38;;;;;;;34.20;30.88;;;18.50;99.90;;;;;;5042350;28;20554;-73
2023/07/22 09:03:05;;;;;;;33.88;31.05;;;18.40;99.90;;;;;;5036349;28;20111;-72
2023/07/22 09:05:34;;;;;;;35.58;32.55;;;18.30;99.90;;;;;;5043221;28;20472;-72
2023/07/22 09:08:03;;;;;;;35.67;32.65;;;18.50;99.90;;;;;;5047118;28;20044;-72
2023/07/22 09:10:31;;;;;;;36.22;33.05;;;18.50;99.90;;;;;;5033860;28;20116;-74
2023/07/22 09:12:59;;;;;;;35.72;32.92;;;18.60;99.90;;;;;;5050056;28;20032;-72
2023/07/22 09:15:27;;;;;;;35.97;32.75;;;19.00;99.90;;;;;;5035614;28;20079;-72
2023/07/22 09:17:54;;;;;;;35.95;33.00;;;19.20;99.90;;;;;;5038070;28;20094;-72
2023/07/22 09:20:22;;;;;;;35.83;32.70;;;19.30;99.90;;;;;;5038248;28;20046;-74
2023/07/22 09:22:50;;;;;;;34.35;31.50;;;19.40;99.90;;;;;;5042635;28;20041;-72
2023/07/22 09:25:39;;;;;;;35.45;32.50;;;19.60;99.90;;;;;;5046623;28;20064;-72
2023/07/22 09:28:05;;;;;;;36.33;33.35;;;19.60;99.90;;;;;;5036493;28;20101;-72
2023/07/22 09:30:35;;;;;;;34.78;31.77;;;19.50;99.90;;;;;;5045640;28;20037;-73
2023/07/22 09:33:03;;;;;;;35.63;32.72;;;19.50;99.90;;;;;;5040119;28;20056;-71
2023/07/22 09:35:45;;;;;;;36.85;33.30;;;19.40;99.90;;;;;;5048296;28;20101;-73
2023/07/22 09:38:12;;;;;;;36.22;33.22;;;19.30;99.90;;;;;;5038935;28;23077;-72
2023/07/22 09:40:42;;;;;;;37.63;34.17;;;19.50;99.90;;;;;;5040954;28;20047;-72
2023/07/22 09:43:12;;;;;;;39.67;36.28;;;19.60;99.90;;;;;;5028190;28;20107;-72
2023/07/22 09:45:39;;;;;;;36.72;33.70;;;19.80;99.90;;;;;;5027389;28;20510;-72
2023/07/22 09:48:05;;;;;;;37.05;34.03;;;20.20;99.90;;;;;;5028429;28;20605;-72
2023/07/22 09:50:32;;;;;;;35.22;32.53;;;20.50;99.90;;;;;;5028414;28;20236;-72
2023/07/22 09:53:01;;;;;;;36.08;33.05;;;20.70;99.90;;;;;;5032533;28;20040;-73
2023/07/22 09:55:31;;;;;;;38.40;35.15;;;20.40;99.90;;;;;;5030574;28;20068;-73
2023/07/22 09:58:01;;;;;;;37.35;34.25;;;20.30;99.90;;;;;;5030629;28;20048;-73
2023/07/22 10:00:33;;;;;;;38.05;34.97;;;20.50;99.90;;;;;;5037145;28;20054;-72
2023/07/22 10:03:04;;;;;;;37.38;34.28;;;21.00;99.90;;;;;;5023077;28;20523;-72
2023/07/22 10:05:34;;;;;;;38.97;35.45;;;21.00;99.90;;;;;;5026201;28;20153;-72
2023/07/22 10:08:02;;;;;;;35.10;32.20;;;21.10;99.90;;;;;;5033722;28;20096;-72
2023/07/22 10:10:33;;;;;;;36.28;33.33;;;21.10;99.90;;;;;;5033886;28;20076;-74
2023/07/22 10:13:00;;;;;;;35.85;32.85;;;21.00;99.90;;;;;;5034878;28;20063;-74
2023/07/22 10:15:29;;;;;;;36.17;33.08;;;20.80;99.90;;;;;;5041882;28;20458;-73
2023/07/22 10:17:56;;;;;;;36.75;33.65;;;20.70;99.90;;;;;;5025315;28;20053;-74
2023/07/22 10:20:24;;;;;;;39.17;35.63;;;20.30;99.90;;;;;;5028237;28;20045;-73
2023/07/22 10:22:51;;;;;;;35.78;32.95;;;20.30;99.90;;;;;;5037576;28;20047;-74
2023/07/22 10:25:19;;;;;;;38.05;34.78;;;20.50;99.90;;;;;;5044234;28;20127;-72
2023/07/22 10:27:48;;;;;;;37.25;34.15;;;20.80;99.90;;;;;;5033202;28;20044;-72
2023/07/22 10:30:17;;;;;;;38.25;35.00;;;21.00;99.90;;;;;;5044720;28;20134;-72
2023/07/22 10:32:52;;;;;;;38.88;35.88;;;21.00;99.90;;;;;;5022161;28;20048;-72
2023/07/22 10:35:31;;;;;;;35.22;32.33;;;21.10;99.90;;;;;;5029795;28;20044;-72
2023/07/22 10:38:16;;;;;;;38.42;35.20;;;21.30;99.90;;;;;;5037352;28;20415;-71
2023/07/22 10:40:53;;;;;;;40.95;37.75;;;21.30;99.90;;;;;;5042906;28;20056;-73
2023/07/22 10:43:33;;;;;;;36.65;33.35;;;21.50;99.90;;;;;;5037932;28;20045;-74
2023/07/22 10:46:14;;;;;;;35.03;31.83;;;21.60;99.90;;;;;;5023226;28;20499;-73
2023/07/22 10:48:42;;;;;;;35.85;32.60;;;21.60;99.90;;;;;;5033219;28;20495;-73
2023/07/22 10:51:17;;;;;;;34.63;31.77;;;21.50;99.90;;;;;;5029307;28;20040;-73
2023/07/22 10:53:48;;;;;;;35.03;32.10;;;21.30;99.90;;;;;;5030595;28;20098;-73
2023/07/22 10:56:24;;;;;;;33.42;30.75;;;21.10;99.90;;;;;;5026402;28;20048;-73
2023/07/22 10:58:52;;;;;;;34.53;31.83;;;21.00;99.90;;;;;;5034105;28;20075;-73
2023/07/22 11:01:28;;;;;;;35.00;32.10;;;21.10;99.90;;;;;;5036363;28;20134;-73
2023/07/22 11:04:14;;;;;;;41.08;37.97;;;21.30;99.90;;;;;;5030113;28;20592;-72
2023/07/22 11:06:43;;;;;;;35.45;32.58;;;21.20;99.90;;;;;;5035933;28;20041;-73
2023/07/22 11:09:34;;;;;;;36.85;34.10;;;21.30;99.90;;;;;;5028563;28;20043;-73
2023/07/22 11:12:16;;;;;;;33.70;31.00;;;21.60;99.90;;;;;;5025026;28;20503;-72
2023/07/22 11:14:51;;;;;;;35.25;32.38;;;21.50;99.90;;;;;;5037945;28;20049;-72
2023/07/22 11:17:29;;;;;;;33.40;30.52;;;21.70;99.90;;;;;;5032041;28;20037;-73
2023/07/22 11:19:57;;;;;;;33.15;30.55;;;21.60;99.90;;;;;;5038259;28;20044;-72
2023/07/22 11:22:24;;;;;;;32.80;30.20;;;21.40;99.90;;;;;;5034765;28;20064;-73
2023/07/22 11:24:51;;;;;;;32.70;30.13;;;21.10;99.90;;;;;;5029953;28;20060;-72
2023/07/22 11:27:17;;;;;;;31.75;29.35;;;21.00;99.90;;;;;;5030231;28;21304;-73
2023/07/22 11:29:44;;;;;;;31.50;29.13;;;21.00;99.90;;;;;;5027376;28;20041;-73
2023/07/22 11:32:20;;;;;;;32.22;29.73;;;20.90;99.90;;;;;;5025389;28;20072;-74
2023/07/22 11:34:48;;;;;;;31.13;28.83;;;20.50;99.90;;;;;;5042053;28;20449;-74
2023/07/22 11:37:15;;;;;;;31.75;29.33;;;20.30;99.90;;;;;;5021342;28;20033;-74
2023/07/22 11:39:43;;;;;;;31.15;28.75;;;20.40;99.90;;;;;;5026121;28;20538;-74
2023/07/22 11:42:11;;;;;;;30.48;28.02;;;20.40;99.90;;;;;;5022301;28;20780;-77
2023/07/22 11:44:38;;;;;;;31.65;29.25;;;20.30;99.90;;;;;;5026535;28;20046;-77
2023/07/22 11:47:09;;;;;;;31.88;29.52;;;20.10;99.90;;;;;;5030239;28;20040;-78
2023/07/22 11:49:41;;;;;;;30.73;28.30;;;20.00;99.90;;;;;;5036799;28;20053;-79
2023/07/22 11:52:10;;;;;;;31.83;29.13;;;19.90;99.90;;;;;;5033806;28;20048;-76
2023/07/22 11:54:42;;;;;;;33.83;31.13;;;19.90;99.90;;;;;;5030758;28;20044;-75
2023/07/22 11:57:17;;;;;;;33.00;30.70;;;19.90;99.90;;;;;;5025705;28;20041;-74
2023/07/22 11:59:45;;;;;;;32.47;29.98;;;20.20;99.90;;;;;;5027597;28;20495;-73
2023/07/22 12:02:14;;;;;;;32.78;30.38;;;20.70;99.90;;;;;;5026103;28;20036;-75
2023/07/22 12:04:40;;;;;;;30.95;28.45;;;20.70;99.90;;;;;;5033789;28;20080;-74
2023/07/22 12:07:22;;;;;;;30.90;28.40;;;20.80;99.90;;;;;;5020591;28;20106;-74
2023/07/22 12:09:49;;;;;;;33.13;30.33;;;20.90;99.90;;;;;;5027407;28;20507;-74
2023/07/22 12:12:16;;;;;;;31.23;28.90;;;20.90;99.90;;;;;;5022892;28;20049;-73
2023/07/22 12:14:43;;;;;;;30.95;28.75;;;21.30;99.90;;;;;;5028233;28;20718;-74
2023/07/22 12:17:09;;;;;;;30.15;27.85;;;21.50;99.90;;;;;;5027322;28;20681;-76
2023/07/22 12:19:36;;;;;;;30.35;27.98;;;21.40;99.90;;;;;;5034428;28;20045;-75
2023/07/22 12:22:03;;;;;;;31.50;29.10;;;21.50;99.90;;;;;;5026375;28;20037;-76
2023/07/22 12:24:30;;;;;;;30.98;28.60;;;21.10;99.90;;;;;;5033070;28;20037;-73
2023/07/22 12:26:57;;;;;;;31.20;28.13;;;21.10;99.90;;;;;;5044733;28;20049;-74
2023/07/22 12:29:23;;;;;;;29.35;27.15;;;21.10;99.90;;;;;;5017174;28;20072;-73
2023/07/22 12:31:50;;;;;;;29.85;27.58;;;20.90;99.90;;;;;;5034949;28;20081;-73
2023/07/22 12:34:17;;;;;;;31.00;28.58;;;20.70;99.90;;;;;;5030941;28;20103;-73